Latest Weather Observations for Braidwood

IDN60801

Issued at 10:05 pm EST Monday 22 September 2014 (issued every 30 minutes, with the page automatically refreshed every 10 minutes)

About weather observations | Map of weather stations | Latest weather observations for NSW | Other Formats
Station Details ID: 069132 Name: BRAIDWOOD RACECOURSE AWS Lat: -35.43 Lon: 149.78 Height: 665.2 m
Data from the previous 72 hours. | See also: Recent months at Braidwood
Date/Time
EST
Temp
°C
App
Temp
°C
Dew
Point
Rel
Hum
%
Delta-T
°C
Wind Press
QNH
hPa
Press
MSL
hPa
Rain
since 9 am
mm
Dir
 
Spd
km/h
Gust
km/h
Spd
kts
Gust
kts
22/10:00pm 6.8 5.9 6.1 95 0.3 WSW 0 0 0 0 1030.5 1030.6 0.0
22/09:30pm 6.5 5.5 5.6 94 0.4 SSE 0 0 0 0 1030.5 1030.6 0.0
22/09:00pm 6.9 5.9 5.8 93 0.5 CALM 0 0 0 0 1030.5 1030.6 0.0
22/08:30pm 7.3 6.4 6.2 93 0.5 CALM 0 0 0 0 1030.3 1030.4 0.0
22/08:00pm 8.3 7.2 7.1 92 0.6 SE 2 4 1 2 1030.3 1030.4 0.0
22/07:30pm 8.5 6.7 7.0 90 0.7 ESE 6 7 3 4 1029.8 1029.9 0.0
22/07:00pm 9.8 8.6 8.1 89 0.8 SE 4 6 2 3 1029.4 1029.5 0.0
22/06:30pm 11.0 9.0 8.6 85 1.2 SE 9 13 5 7 1029.2 1029.3 0.0
22/06:00pm 11.4 8.7 8.8 84 1.3 ESE 13 15 7 8 1028.8 1028.9 0.0
22/05:30pm 13.2 10.3 9.5 78 2.0 ESE 15 19 8 10 1028.5 1028.6 0.0
22/05:00pm 14.6 10.9 9.6 72 2.7 ESE 19 24 10 13 1028.2 1028.3 0.0
22/04:30pm 16.0 12.7 9.7 66 3.4 ESE 17 20 9 11 1028.0 1028.1 0.0
22/04:00pm 17.2 14.4 8.6 57 4.5 E 13 19 7 10 1027.8 1027.9 0.0
22/03:30pm 17.7 15.2 3.6 39 6.8 E 6 11 3 6 1027.9 1028.0 0.0
22/03:00pm 17.7 15.2 3.6 39 6.8 E 6 11 3 6 1028.2 1028.3 0.0
22/02:30pm 17.6 15.7 6.5 48 5.7 ESE 6 17 3 9 1028.2 1028.3 0.0
22/02:00pm 17.5 15.1 5.1 44 6.1 NE 7 15 4 8 1028.3 1028.4 0.0
22/01:30pm 17.3 14.9 6.8 50 5.4 ENE 9 13 5 7 1028.8 1028.9 0.0
22/01:00pm 17.5 15.5 7.3 51 5.3 NE 7 17 4 9 1029.0 1029.1 0.0
22/12:30pm 16.2 14.2 6.3 52 5.0 E 6 11 3 6 1029.4 1029.5 0.0
22/12:00pm 16.3 14.4 6.7 53 4.9 NE 6 9 3 5 1030.0 1030.2 0.0
22/11:30am 15.6 13.6 6.3 54 4.7 ENE 6 15 3 8 1030.5 1030.6 0.0
22/11:00am 15.3 13.4 5.0 50 5.0 N 4 7 2 4 1030.9 1031.0 0.0
22/10:30am 13.9 12.3 7.9 67 3.1 NNE 6 9 3 5 1031.3 1031.5 0.0
22/10:00am 12.7 11.8 7.6 71 2.6 NE 2 7 1 4 1031.6 1031.8 0.0
22/09:30am 11.8 11.2 7.5 75 2.2 CALM 0 6 0 3 1031.7 1031.9 0.0
22/09:00am 11.0 9.1 6.9 76 2.0 NNE 6 9 3 5 1031.7 1031.9 0.0
22/08:30am 10.6 9.6 7.3 80 1.6 NNE 2 11 1 6 1031.9 1032.0 0.0
22/08:00am 8.8 7.1 6.1 83 1.3 N 4 9 2 5 1031.9 1032.0 0.0
22/07:30am 8.5 6.8 6.1 85 1.1 NNE 4 7 2 4 1031.6 1031.8 0.0
22/07:00am 7.1 6.2 6.0 93 0.5 CALM 0 0 0 0 1031.3 1031.5 0.0
22/06:30am 4.7 3.3 3.8 94 0.4 CALM 0 4 0 2 1031.0 1031.1 0.0
22/06:00am 4.0 2.5 2.8 92 0.5 CALM 0 2 0 1 1030.5 1030.6 0.0
22/05:30am 5.0 3.2 3.7 91 0.6 N 2 4 1 2 1030.3 1030.4 0.0
22/05:00am 6.3 4.5 5.3 93 0.5 NNW 4 7 2 4 1030.0 1030.2 0.0
22/04:30am 5.7 4.5 4.5 92 0.5 CALM 0 0 0 0 1029.8 1029.9 0.0
22/04:00am 5.9 4.7 4.5 91 0.6 CALM 0 0 0 0 1029.7 1029.8 0.0
22/03:30am 6.3 5.1 4.6 89 0.8 CALM 0 0 0 0 1029.6 1029.7 0.0
22/03:00am 6.8 5.7 5.3 90 0.7 CALM 0 0 0 0 1029.8 1029.9 0.0
22/02:30am 6.9 5.9 5.7 92 0.6 CALM 0 0 0 0 1030.0 1030.2 0.0
22/02:00am 6.1 4.9 4.6 90 0.7 CALM 0 0 0 0 1030.3 1030.4 0.0
22/01:30am 7.6 6.0 4.7 82 1.3 WNW 2 7 1 4 1030.4 1030.5 0.0
22/01:00am 8.1 6.0 5.7 85 1.1 N 6 11 3 6 1030.8 1030.9 0.0
22/12:30am 8.2 6.1 5.8 85 1.1 NNW 6 11 3 6 1030.8 1030.9 0.0
22/12:00am 8.2 6.5 5.8 85 1.1 NNW 4 9 2 5 1030.9 1031.0 0.0
 
Date/Time
EST
Temp
°C
App
Temp
°C
Dew
Point
Rel
Hum
%
Delta-T
°C
Wind Press
QNH
hPa
Press
MSL
hPa
Rain
since 9 am
mm
Dir
 
Spd
km/h
Gust
km/h
Spd
kts
Gust
kts
21/11:30pm 8.2 6.5 6.0 86 1.0 NNE 4 9 2 5 1031.2 1031.3 0.0
21/11:00pm 8.4 7.1 6.2 86 1.0 ENE 2 6 1 3 1031.2 1031.3 0.0
21/10:30pm 8.4 6.7 6.0 85 1.1 NE 4 9 2 5 1031.4 1031.6 0.0
21/10:00pm 8.4 6.3 6.0 85 1.1 E 6 7 3 4 1031.3 1031.5 0.0
21/09:30pm 8.5 6.6 6.5 87 1.0 ESE 6 9 3 5 1031.1 1031.2 0.0
21/09:00pm 8.4 6.4 6.4 87 0.9 SE 6 9 3 5 1030.8 1030.9 0.0
21/08:30pm 8.3 6.1 6.4 88 0.9 SE 7 9 4 5 1030.6 1030.7 0.0
21/08:00pm 8.4 5.5 6.7 89 0.8 ESE 11 15 6 8 1030.4 1030.5 0.0
21/07:30pm 8.6 6.2 7.1 90 0.7 SE 9 15 5 8 1030.0 1030.2 0.0
21/07:00pm 8.8 5.6 6.9 88 0.9 SE 13 19 7 10 1029.7 1029.8 0.0
21/06:30pm 9.2 6.5 7.2 87 1.0 SSE 11 15 6 8 1029.3 1029.4 0.0
21/06:00pm 9.6 6.1 7.2 85 1.2 SE 15 22 8 12 1028.7 1028.7 0.0
21/05:30pm 10.6 6.2 7.5 81 1.5 SE 20 28 11 15 1028.2 1028.3 0.0
21/05:00pm 11.9 6.8 7.8 76 2.1 ESE 24 30 13 16 1027.7 1027.8 0.0
21/04:30pm 13.3 8.7 8.2 71 2.6 ESE 22 26 12 14 1027.3 1027.3 0.0
21/04:00pm 15.8 13.6 6.3 53 4.8 E 7 13 4 7 1027.1 1027.1 0.0
21/03:30pm 15.6 13.0 4.3 47 5.5 NE 7 13 4 7 1027.0 1027.0 0.0
21/03:00pm 15.9 13.7 6.1 52 4.9 ENE 7 9 4 5 1027.1 1027.1 0.0
21/02:30pm 15.2 12.6 4.3 48 5.2 ENE 7 13 4 7 1027.4 1027.4 0.0
21/02:00pm 15.4 13.2 6.2 54 4.6 ENE 7 9 4 5 1027.5 1027.6 0.0
21/01:30pm 15.2 13.7 4.9 50 5.0 N 2 9 1 5 1027.8 1027.9 0.0
21/01:00pm 14.8 12.6 5.1 52 4.7 NE 6 13 3 7 1028.2 1028.3 0.0
21/12:30pm 14.6 12.8 5.4 54 4.5 N 4 9 2 5 1028.7 1028.7 0.0
21/12:00pm 14.6 12.3 4.9 52 4.7 NNE 6 13 3 7 1029.0 1029.1 0.0
21/11:30am 14.6 13.1 6.9 60 3.9 N 4 13 2 7 1029.4 1029.5 0.0
21/11:00am 14.2 12.0 6.1 58 4.0 N 7 15 4 8 1029.6 1029.7 0.0
21/10:30am 12.5 10.6 5.0 60 3.6 WNW 4 9 2 5 1030.0 1030.2 0.0
21/10:00am 13.2 11.2 6.1 62 3.5 N 6 11 3 6 1030.3 1030.4 0.0
21/09:30am 12.6 11.0 6.4 66 3.1 N 4 9 2 5 1030.5 1030.6 0.0
21/09:00am 11.4 9.3 5.9 69 2.6 NNE 6 11 3 6 1030.5 1030.6 0.0
21/08:30am 9.4 7.1 4.8 73 2.1 NW 6 9 3 5 1030.6 1030.7 0.0
21/08:00am 10.0 9.1 6.2 77 1.8 CALM 0 6 0 3 1030.5 1030.6 0.0
21/07:30am 8.7 8.1 7.6 93 0.5 CALM 0 4 0 2 1030.1 1030.3 0.0
21/07:00am 6.5 5.5 5.8 95 0.3 CALM 0 2 0 1 1029.6 1029.7 0.0
21/06:30am 5.7 4.6 5.0 95 0.3 CALM 0 0 0 0 1029.2 1029.3 0.0
21/06:00am 5.6 4.5 4.9 95 0.3 CALM 0 0 0 0 1028.7 1028.7 0.0
21/05:30am 6.2 5.2 5.6 96 0.3 CALM 0 0 0 0 1028.1 1028.2 0.0
21/05:00am 6.0 5.0 5.4 96 0.3 CALM 0 0 0 0 1027.7 1027.8 0.0
21/04:30am 5.5 4.4 4.9 96 0.3 CALM 0 0 0 0 1027.5 1027.6 0.0
21/04:00am 5.1 3.9 4.4 95 0.3 CALM 0 0 0 0 1027.1 1027.1 0.0
21/03:30am 3.9 2.4 2.9 93 0.4 CALM 0 0 0 0 1027.3 1027.3 0.0
21/03:00am 5.3 4.0 4.1 92 0.5 CALM 0 0 0 0 1027.3 1027.3 0.0
21/02:30am 6.8 5.9 5.9 94 0.4 CALM 0 0 0 0 1027.7 1027.8 0.0
21/02:00am 7.1 6.2 6.0 93 0.5 CALM 0 0 0 0 1027.7 1027.8 0.0
21/01:30am 7.5 6.7 6.4 93 0.5 CALM 0 0 0 0 1028.0 1028.1 0.0
21/01:00am 8.0 7.3 6.9 93 0.5 CALM 0 0 0 0 1028.3 1028.4 0.0
21/12:30am 8.0 6.9 6.9 93 0.5 S 2 4 1 2 1028.4 1028.5 0.0
21/12:00am 8.1 6.7 7.2 94 0.4 S 4 9 2 5 1028.5 1028.6 0.0
 
Date/Time
EST
Temp
°C
App
Temp
°C
Dew
Point
Rel
Hum
%
Delta-T
°C
Wind Press
QNH
hPa
Press
MSL
hPa
Rain
since 9 am
mm
Dir
 
Spd
km/h
Gust
km/h
Spd
kts
Gust
kts
20/11:30pm 7.3 6.4 6.2 93 0.5 CALM 0 0 0 0 1028.4 1028.5 0.0
20/11:00pm 6.9 5.9 5.7 92 0.6 CALM 0 0 0 0 1028.7 1028.7 0.0
20/10:30pm 7.0 6.0 5.6 91 0.7 CALM 0 0 0 0 1028.5 1028.6 0.0
20/10:00pm 7.2 6.3 6.0 92 0.6 CALM 0 0 0 0 1028.5 1028.6 0.0
20/09:30pm 7.2 6.3 6.1 93 0.5 CALM 0 0 0 0 1028.4 1028.5 0.0
20/09:00pm 6.5 5.5 5.5 93 0.5 CALM 0 0 0 0 1028.2 1028.3 0.0
20/08:30pm 6.2 5.0 4.8 91 0.6 CALM 0 0 0 0 1028.1 1028.2 0.0
20/08:00pm 6.0 4.7 4.3 89 0.8 CALM 0 0 0 0 1027.7 1027.8 0.0
20/07:30pm 6.4 5.2 4.6 88 0.8 CALM 0 0 0 0 1027.5 1027.6 0.0
20/07:00pm 6.6 4.5 3.9 83 1.2 SE 4 9 2 5 1027.1 1027.1 0.0
20/06:30pm 7.5 4.4 3.7 77 1.7 ESE 9 11 5 6 1026.3 1026.4 0.0
20/06:00pm 8.8 5.1 4.2 73 2.1 ESE 13 19 7 10 1025.8 1025.8 0.0
20/05:30pm 10.4 5.5 3.9 64 3.0 ESE 19 26 10 14 1024.8 1024.8 0.0
20/05:00pm 11.7 6.2 4.2 60 3.5 ESE 22 28 12 15 1024.2 1024.2 0.0
20/04:30pm 13.2 8.2 4.4 55 4.2 ESE 20 28 11 15 1023.9 1023.9 0.0
20/04:00pm 14.4 9.4 3.8 49 5.0 ESE 19 24 10 13 1023.3 1023.3 0.0
20/03:30pm 15.1 11.9 0.5 37 6.5 ESE 7 13 4 7 1023.1 1023.1 0.0
20/03:00pm 15.1 12.2 1.3 39 6.2 E 6 13 3 7 1023.1 1023.1 0.0
20/02:30pm 14.8 12.3 1.3 40 6.1 NE 4 13 2 7 1023.2 1023.2 0.0
20/02:00pm 14.5 11.7 1.8 42 5.7 ENE 6 9 3 5 1023.2 1023.2 0.0
20/01:30pm 13.9 10.9 0.9 41 5.8 E 6 11 3 6 1023.3 1023.3 0.0
20/01:00pm 13.6 10.4 0.6 41 5.7 E 7 11 4 6 1023.6 1023.7 0.0
20/12:30pm 13.8 11.2 1.1 42 5.6 NE 4 9 2 5 1023.9 1023.9 0.0
20/12:00pm 12.6 9.4 1.0 45 5.1 E 7 13 4 7 1024.1 1024.1 0.0
20/11:30am 12.6 9.8 2.2 49 4.7 E 6 11 3 6 1024.5 1024.5 0.0
20/11:00am 12.1 9.4 2.6 52 4.3 E 6 9 3 5 1024.5 1024.5 0.0
20/10:30am 11.2 8.2 1.7 52 4.2 ENE 7 11 4 6 1024.5 1024.5 0.0
20/10:00am 10.7 7.9 1.8 54 3.9 S 6 9 3 5 1024.8 1024.8 0.0
20/09:30am 10.1 7.3 2.0 57 3.6 SE 6 11 3 6 1024.9 1025.0 0.0
20/09:00am 9.5 6.8 2.4 61 3.1 SSE 6 9 3 5 1024.8 1024.8 0.2
20/08:30am 8.8 6.2 3.2 68 2.5 SW 6 9 3 5 1024.5 1024.5 0.2
20/08:00am 7.8 6.0 3.7 75 1.8 S 2 6 1 3 1024.4 1024.4 0.2
20/07:30am 6.0 4.6 3.8 86 1.0 CALM 0 0 0 0 1024.1 1024.1 0.2
20/07:00am 2.6 0.1 1.7 94 0.4 SSE 4 4 2 2 1023.8 1023.8 0.2
20/06:30am 0.6 -1.4 0.0 96 0.2 CALM 0 0 0 0 1023.4 1023.4 0.2
20/06:00am -0.8 -3.0 -1.5 95 0.2 CALM 0 0 0 0 1023.0 1023.0 0.2
20/05:30am -0.9 -3.1 -1.6 95 0.2 CALM 0 0 0 0 1022.6 1022.6 0.2
20/05:00am -0.6 -2.8 -1.3 95 0.2 CALM 0 0 0 0 1022.2 1022.1 0.2
20/04:30am -1.2 -3.4 -1.9 95 0.2 CALM 0 0 0 0 1021.6 1021.6 0.2
20/04:00am -0.9 -3.1 -1.6 95 0.2 CALM 0 0 0 0 1021.4 1021.4 0.2
20/03:30am -1.1 -3.3 -1.9 94 0.2 CALM 0 0 0 0 1021.3 1021.3 0.2
20/03:00am -0.4 -2.9 -1.1 95 0.2 SSW 2 6 1 3 1021.2 1021.2 0.2
20/02:30am -1.1 -3.4 -2.1 93 0.3 CALM 0 0 0 0 1021.1 1021.1 0.2
20/02:00am -0.9 -3.1 -1.9 93 0.3 CALM 0 0 0 0 1021.3 1021.3 0.2
20/01:30am -0.1 -2.2 -1.1 93 0.4 CALM 0 0 0 0 1021.4 1021.4 0.2
20/01:00am 0.1 -2.0 -1.0 92 0.4 CALM 0 0 0 0 1021.4 1021.4 0.2
20/12:30am 1.0 -1.1 -0.6 89 0.6 CALM 0 0 0 0 1021.5 1021.5 0.2
20/12:00am 2.0 0.1 0.7 91 0.5 CALM 0 4 0 2 1021.4 1021.4 0.2
 
Date/Time
EST
Temp
°C
App
Temp
°C
Dew
Point
Rel
Hum
%
Delta-T
°C
Wind Press
QNH
hPa
Press
MSL
hPa
Rain
since 9 am
mm
Dir
 
Spd
km/h
Gust
km/h
Spd
kts
Gust
kts
19/11:30pm 2.0 0.0 -0.1 86 0.8 CALM 0 0 0 0 1021.6 1021.6 0.2
19/11:00pm 4.2 1.6 3.0 92 0.5 SW 6 9 3 5 1021.9 1021.9 0.2
19/10:30pm 1.9 -0.4 0.3 89 0.6 S 2 4 1 2 1022.2 1022.1 0.2

Other Formats:

Comma delimited format used in spreadsheet applications
http://www.bom.gov.au/fwo/IDN60801/IDN60801.94927.axf

JavaScript Object Notation format (JSON) in row-major order
http://www.bom.gov.au/fwo/IDN60801/IDN60801.94927.json